Airfield :
LOGIN :

Register | Disclaimer

   EN    FR    IT 

 










Legend :    VFR   Marginal VFR   IFR   Intensive IFR   Very Intensive IFR
Visi :
Ceiling :
>= 8 km
>= 3000ft
5 to 8 km
1000 to 3000 ft
1500m to 5 km
500 to 1000 ft
800 to 1500m
200 to 500 ft
< 800m
< 200 ft
Symbols :   Thunderstorms  Fog  Heavy snow  Heavy precipitations  Wind > 20 kt
SIGMETs :     Misc.  Thunderstorms  Icing  Turbulence  Mountain Waves  Volcanic Ashes






- Airport Elevation : 33 ft
- IATA code : MHZ


EGUN - RAF Mildenhall

CURRENT METAR :
  • 042355Z 13005KT 9999 CLR 06/02 A3010 RMK AO2A SLP194 WND DATA ESTMD ALSTG/SLP ESTMD RVRNO

EXPIRED METARs :
  • 042255Z 13005KT 9999 CLR 07/02 A3011 RMK AO2A SLP196 WND DATA ESTMD ALSTG/SLP ESTMD RVRNO
  • 042155Z 13005KT 9999 CLR 07/02 A3012 RMK AO2A SLP198 WND DATA ESTMD ALSTG/SLP ESTMD RVRNO

TAF TAF EGUN
Valid from the 04 at 20:00 until the 06 at 02:00 UTC


042000Z 0420/0602 15012KT 9999 FEW050 QNH3004INS
BECMG 0508/0509 15012G20KT 9999 SKC QNH2988INS
BECMG 0519/0520 16010G15KT 9999 SKC QNH2984INS TX17/0514Z TN06/0505Z



MET'MAP, your aeronautical weather chart ! - Copyright ORBIFLY December 2007 - Disclaimer

ORBIFLY MET'MAP TEAM :

Programming & Development : Alexandra Zaïnal
Concept & original design : Baudouin d'Aumeries
Assistance for programming : Marc-Olivier Méhu
Technical & hardware support : Manuel Goepfert

Contact : metmap@orbifly.com




SOURCES & CREDITS :

   NOAA